sensor_id;sensor_type;location;lat;lon;timestamp;pressure;altitude;pressure_sealevel;temperature;humidity
15444;BME280;7822;48.146;11.576;2023-04-19T00:01:27;95526.56;;;14.76;65.12
15444;BME280;7822;48.146;11.576;2023-04-19T00:03:55;95517.94;;;14.75;65.19
15444;BME280;7822;48.146;11.576;2023-04-19T00:06:23;95521.34;;;14.76;65.25
15444;BME280;7822;48.146;11.576;2023-04-19T00:08:51;95527.41;;;14.76;65.39
15444;BME280;7822;48.146;11.576;2023-04-19T00:11:20;95520.41;;;14.77;65.22
15444;BME280;7822;48.146;11.576;2023-04-19T00:13:48;95509.28;;;14.75;65.16
15444;BME280;7822;48.146;11.576;2023-04-19T00:16:15;95509.13;;;14.76;65.21
15444;BME280;7822;48.146;11.576;2023-04-19T00:18:43;95509.13;;;14.76;65.17
15444;BME280;7822;48.146;11.576;2023-04-19T00:21:12;95511.88;;;14.75;65.09
15444;BME280;7822;48.146;11.576;2023-04-19T00:23:39;95510.91;;;14.76;65.15
15444;BME280;7822;48.146;11.576;2023-04-19T00:26:07;95518.72;;;14.76;65.27
15444;BME280;7822;48.146;11.576;2023-04-19T00:28:38;95510.91;;;14.76;65.13
15444;BME280;7822;48.146;11.576;2023-04-19T00:31:05;95506.66;;;14.75;65.27
15444;BME280;7822;48.146;11.576;2023-04-19T00:33:33;95510.09;;;14.75;65.17
15444;BME280;7822;48.146;11.576;2023-04-19T00:36:01;95504.03;;;14.75;65.24
15444;BME280;7822;48.146;11.576;2023-04-19T00:38:28;95503.22;;;14.74;65.21
15444;BME280;7822;48.146;11.576;2023-04-19T00:40:57;95506.66;;;14.75;65.17
15444;BME280;7822;48.146;11.576;2023-04-19T00:43:25;95504.03;;;14.75;65.01
15444;BME280;7822;48.146;11.576;2023-04-19T00:45:54;95503.06;;;14.76;65.11
15444;BME280;7822;48.146;11.576;2023-04-19T00:48:21;95498.66;;;14.76;65.37
15444;BME280;7822;48.146;11.576;2023-04-19T00:50:50;95499.66;;;14.75;65.46
15444;BME280;7822;48.146;11.576;2023-04-19T00:53:17;95498.00;;;14.74;65.25
15444;BME280;7822;48.146;11.576;2023-04-19T00:55:46;95494.56;;;14.74;65.01
15444;BME280;7822;48.146;11.576;2023-04-19T00:58:16;95495.38;;;14.74;65.25
15444;BME280;7822;48.146;11.576;2023-04-19T01:00:44;95496.22;;;14.75;65.20
15444;BME280;7822;48.146;11.576;2023-04-19T01:03:13;95494.44;;;14.75;65.21
15444;BME280;7822;48.146;11.576;2023-04-19T01:05:42;95489.31;;;14.74;65.31
15444;BME280;7822;48.146;11.576;2023-04-19T01:08:10;95486.72;;;14.74;64.94
15444;BME280;7822;48.146;11.576;2023-04-19T01:10:37;95491.13;;;14.73;65.45
15444;BME280;7822;48.146;11.576;2023-04-19T01:13:05;95494.56;;;14.74;65.16
15444;BME280;7822;48.146;11.576;2023-04-19T01:15:32;95491.13;;;14.73;65.24
15444;BME280;7822;48.146;11.576;2023-04-19T01:18:00;95480.81;;;14.72;65.32
15444;BME280;7822;48.146;11.576;2023-04-19T01:20:29;95485.91;;;14.73;65.43
15444;BME280;7822;48.146;11.576;2023-04-19T01:22:58;95478.09;;;14.73;64.85
15444;BME280;7822;48.146;11.576;2023-04-19T01:25:26;95467.75;;;14.72;65.27
15444;BME280;7822;48.146;11.576;2023-04-19T01:27:54;95461.59;;;14.73;65.24
15444;BME280;7822;48.146;11.576;2023-04-19T01:30:21;95466.81;;;14.73;65.36
15444;BME280;7822;48.146;11.576;2023-04-19T01:32:49;95474.50;;;14.74;65.02
15444;BME280;7822;48.146;11.576;2023-04-19T01:35:17;95460.59;;;14.74;65.04
15444;BME280;7822;48.146;11.576;2023-04-19T01:37:44;95463.22;;;14.74;65.08
15444;BME280;7822;48.146;11.576;2023-04-19T01:40:14;95457.19;;;14.73;65.40
15444;BME280;7822;48.146;11.576;2023-04-19T01:42:42;95458.00;;;14.74;65.15
15444;BME280;7822;48.146;11.576;2023-04-19T01:45:10;95457.19;;;14.73;65.17
15444;BME280;7822;48.146;11.576;2023-04-19T01:47:37;95448.53;;;14.73;65.29
15444;BME280;7822;48.146;11.576;2023-04-19T01:50:06;95446.88;;;14.72;65.16
15444;BME280;7822;48.146;11.576;2023-04-19T01:52:34;95451.97;;;14.73;65.15
15444;BME280;7822;48.146;11.576;2023-04-19T01:55:02;95452.91;;;14.72;65.07
15444;BME280;7822;48.146;11.576;2023-04-19T01:57:31;95449.34;;;14.73;65.37
15444;BME280;7822;48.146;11.576;2023-04-19T02:00:00;95448.53;;;14.73;65.16
15444;BME280;7822;48.146;11.576;2023-04-19T02:02:27;95449.34;;;14.73;65.11
15444;BME280;7822;48.146;11.576;2023-04-19T02:04:56;95449.34;;;14.73;65.37
15444;BME280;7822;48.146;11.576;2023-04-19T02:07:24;95443.31;;;14.73;65.31
15444;BME280;7822;48.146;11.576;2023-04-19T02:09:51;95445.09;;;14.72;65.37
15444;BME280;7822;48.146;11.576;2023-04-19T02:12:19;95441.53;;;14.73;65.27
15444;BME280;7822;48.146;11.576;2023-04-19T02:14:48;95434.63;;;14.72;65.26
15444;BME280;7822;48.146;11.576;2023-04-19T02:17:16;95435.63;;;14.71;64.99
15444;BME280;7822;48.146;11.576;2023-04-19T02:19:43;95432.03;;;14.72;65.49
15444;BME280;7822;48.146;11.576;2023-04-19T02:22:11;95435.47;;;14.73;65.37
15444;BME280;7822;48.146;11.576;2023-04-19T02:24:38;95424.34;;;14.71;65.12
15444;BME280;7822;48.146;11.576;2023-04-19T02:27:06;95429.41;;;14.72;65.04
15444;BME280;7822;48.146;11.576;2023-04-19T02:29:34;95421.72;;;14.71;65.46
15444;BME280;7822;48.146;11.576;2023-04-19T02:32:03;95433.97;;;14.70;65.40
15444;BME280;7822;48.146;11.576;2023-04-19T02:34:32;95423.38;;;14.72;65.11
15444;BME280;7822;48.146;11.576;2023-04-19T02:37:01;95416.34;;;14.72;65.14
15444;BME280;7822;48.146;11.576;2023-04-19T02:39:29;95415.53;;;14.72;64.94
15444;BME280;7822;48.146;11.576;2023-04-19T02:41:57;95415.53;;;14.72;65.20
15444;BME280;7822;48.146;11.576;2023-04-19T02:44:24;95406.91;;;14.71;65.20
15444;BME280;7822;48.146;11.576;2023-04-19T02:46:53;95408.53;;;14.72;65.22
15444;BME280;7822;48.146;11.576;2023-04-19T02:49:22;95405.09;;;14.72;65.16
15444;BME280;7822;48.146;11.576;2023-04-19T02:51:50;95404.28;;;14.71;65.22
15444;BME280;7822;48.146;11.576;2023-04-19T02:54:18;95406.91;;;14.71;65.32
15444;BME280;7822;48.146;11.576;2023-04-19T02:56:45;95411.13;;;14.72;65.17
15444;BME280;7822;48.146;11.576;2023-04-19T02:59:13;95411.13;;;14.72;65.34
15444;BME280;7822;48.146;11.576;2023-04-19T03:01:41;95401.69;;;14.71;65.32
15444;BME280;7822;48.146;11.576;2023-04-19T03:04:08;95400.69;;;14.72;65.28
15444;BME280;7822;48.146;11.576;2023-04-19T03:06:37;95399.84;;;14.72;65.17
15444;BME280;7822;48.146;11.576;2023-04-19T03:09:05;95394.63;;;14.72;65.40
15444;BME280;7822;48.146;11.576;2023-04-19T03:11:33;95399.06;;;14.71;65.29
15444;BME280;7822;48.146;11.576;2023-04-19T03:14:01;95395.63;;;14.71;65.45
15444;BME280;7822;48.146;11.576;2023-04-19T03:16:28;95400.84;;;14.71;65.20
15444;BME280;7822;48.146;11.576;2023-04-19T03:18:56;95390.41;;;14.71;65.27
15444;BME280;7822;48.146;11.576;2023-04-19T03:21:24;95386.13;;;14.70;65.35
15444;BME280;7822;48.146;11.576;2023-04-19T03:23:55;95386.97;;;14.70;65.11
15444;BME280;7822;48.146;11.576;2023-04-19T03:26:23;95388.63;;;14.71;65.06
15444;BME280;7822;48.146;11.576;2023-04-19T03:28:51;95381.72;;;14.70;65.55
15444;BME280;7822;48.146;11.576;2023-04-19T03:31:19;95383.41;;;14.71;65.42
15444;BME280;7822;48.146;11.576;2023-04-19T03:33:47;95377.34;;;14.71;64.85
15444;BME280;7822;48.146;11.576;2023-04-19T03:36:15;95381.72;;;14.70;65.37
15444;BME280;7822;48.146;11.576;2023-04-19T03:38:42;95379.94;;;14.71;65.07
15444;BME280;7822;48.146;11.576;2023-04-19T03:41:18;95374.72;;;14.71;65.30
15444;BME280;7822;48.146;11.576;2023-04-19T03:43:46;95376.34;;;14.72;65.35
15444;BME280;7822;48.146;11.576;2023-04-19T03:46:14;95368.69;;;14.70;65.30
15444;BME280;7822;48.146;11.576;2023-04-19T03:48:41;95367.72;;;14.71;65.34
15444;BME280;7822;48.146;11.576;2023-04-19T03:51:09;95371.13;;;14.72;65.25
15444;BME280;7822;48.146;11.576;2023-04-19T03:53:38;95366.06;;;14.70;65.43
15444;BME280;7822;48.146;11.576;2023-04-19T03:56:06;95372.94;;;14.71;65.27
15444;BME280;7822;48.146;11.576;2023-04-19T03:58:35;95369.50;;;14.71;65.10
15444;BME280;7822;48.146;11.576;2023-04-19T04:01:03;95362.50;;;14.71;65.16
15444;BME280;7822;48.146;11.576;2023-04-19T04:03:32;95360.84;;;14.70;65.38
15444;BME280;7822;48.146;11.576;2023-04-19T04:05:59;95372.13;;;14.71;65.50
15444;BME280;7822;48.146;11.576;2023-04-19T04:08:27;95369.50;;;14.71;65.23
15444;BME280;7822;48.146;11.576;2023-04-19T04:10:55;95372.94;;;14.71;65.43
15444;BME280;7822;48.146;11.576;2023-04-19T04:13:22;95379.13;;;14.70;65.32
15444;BME280;7822;48.146;11.576;2023-04-19T04:15:51;95371.13;;;14.72;65.41
15444;BME280;7822;48.146;11.576;2023-04-19T04:18:19;95370.34;;;14.71;65.41
15444;BME280;7822;48.146;11.576;2023-04-19T04:20:47;95378.16;;;14.71;65.27
15444;BME280;7822;48.146;11.576;2023-04-19T04:23:15;95373.75;;;14.72;65.13
15444;BME280;7822;48.146;11.576;2023-04-19T04:25:42;95372.94;;;14.71;65.47
15444;BME280;7822;48.146;11.576;2023-04-19T04:28:11;95373.75;;;14.72;65.38
15444;BME280;7822;48.146;11.576;2023-04-19T04:30:40;95373.75;;;14.72;65.23
15444;BME280;7822;48.146;11.576;2023-04-19T04:33:09;95375.41;;;14.73;65.61
15444;BME280;7822;48.146;11.576;2023-04-19T04:35:37;95376.34;;;14.72;65.27
15444;BME280;7822;48.146;11.576;2023-04-19T04:38:05;95370.34;;;14.71;65.50
15444;BME280;7822;48.146;11.576;2023-04-19T04:40:49;95376.34;;;14.72;65.43
15444;BME280;7822;48.146;11.576;2023-04-19T04:43:19;95370.34;;;14.71;65.35
15444;BME280;7822;48.146;11.576;2023-04-19T04:45:48;95374.56;;;14.72;65.20
15444;BME280;7822;48.146;11.576;2023-04-19T04:48:17;95371.97;;;14.72;65.43
15444;BME280;7822;48.146;11.576;2023-04-19T04:50:45;95371.13;;;14.72;65.56
15444;BME280;7822;48.146;11.576;2023-04-19T04:53:12;95375.41;;;14.73;65.44
15444;BME280;7822;48.146;11.576;2023-04-19T04:55:40;95374.56;;;14.72;65.63
15444;BME280;7822;48.146;11.576;2023-04-19T04:58:08;95369.34;;;14.72;65.20
15444;BME280;7822;48.146;11.576;2023-04-19T05:00:35;95378.00;;;14.73;65.18
15444;BME280;7822;48.146;11.576;2023-04-19T05:03:03;95378.00;;;14.73;65.12
15444;BME280;7822;48.146;11.576;2023-04-19T05:05:32;95375.41;;;14.73;65.13
15444;BME280;7822;48.146;11.576;2023-04-19T05:08:00;95371.97;;;14.72;65.35
15444;BME280;7822;48.146;11.576;2023-04-19T05:10:27;95362.34;;;14.73;65.41
15444;BME280;7822;48.146;11.576;2023-04-19T05:12:55;95370.19;;;14.73;65.53
15444;BME280;7822;48.146;11.576;2023-04-19T05:15:23;95360.56;;;14.73;65.20
15444;BME280;7822;48.146;11.576;2023-04-19T05:17:50;95356.16;;;14.74;65.28
15444;BME280;7822;48.146;11.576;2023-04-19T05:20:18;95360.56;;;14.73;65.54
15444;BME280;7822;48.146;11.576;2023-04-19T05:22:47;95366.75;;;14.72;65.37
15444;BME280;7822;48.146;11.576;2023-04-19T05:25:15;95351.91;;;14.73;65.38
15444;BME280;7822;48.146;11.576;2023-04-19T05:27:43;95368.41;;;14.73;65.43
15444;BME280;7822;48.146;11.576;2023-04-19T05:30:10;95370.19;;;14.73;65.15
15444;BME280;7822;48.146;11.576;2023-04-19T05:32:38;95363.19;;;14.73;65.25
15444;BME280;7822;48.146;11.576;2023-04-19T05:35:07;95359.75;;;14.73;65.32
15444;BME280;7822;48.146;11.576;2023-04-19T05:37:35;95365.78;;;14.73;65.42
15444;BME280;7822;48.146;11.576;2023-04-19T05:40:05;95362.34;;;14.73;65.62
15444;BME280;7822;48.146;11.576;2023-04-19T05:42:35;95362.19;;;14.74;65.43
15444;BME280;7822;48.146;11.576;2023-04-19T05:45:03;95357.13;;;14.73;65.23
15444;BME280;7822;48.146;11.576;2023-04-19T05:47:31;95361.53;;;14.72;65.59
15444;BME280;7822;48.146;11.576;2023-04-19T05:49:59;95356.28;;;14.72;65.32
15444;BME280;7822;48.146;11.576;2023-04-19T05:52:27;95358.91;;;14.72;65.45
15444;BME280;7822;48.146;11.576;2023-04-19T05:54:54;95355.34;;;14.73;65.41
15444;BME280;7822;48.146;11.576;2023-04-19T05:57:23;95360.56;;;14.73;65.33
15444;BME280;7822;48.146;11.576;2023-04-19T05:59:51;95362.34;;;14.73;65.14
15444;BME280;7822;48.146;11.576;2023-04-19T06:02:19;95364.97;;;14.73;65.20
15444;BME280;7822;48.146;11.576;2023-04-19T06:04:47;95363.31;;;14.72;65.40
15444;BME280;7822;48.146;11.576;2023-04-19T06:07:15;95359.91;;;14.71;65.41
15444;BME280;7822;48.146;11.576;2023-04-19T06:09:59;95358.09;;;14.72;65.22
15444;BME280;7822;48.146;11.576;2023-04-19T06:12:28;95358.09;;;14.72;65.42
15444;BME280;7822;48.146;11.576;2023-04-19T06:14:56;95363.31;;;14.72;65.47
15444;BME280;7822;48.146;11.576;2023-04-19T06:17:23;95355.47;;;14.72;65.40
15444;BME280;7822;48.146;11.576;2023-04-19T06:19:51;95357.28;;;14.71;65.64
15444;BME280;7822;48.146;11.576;2023-04-19T06:22:19;95364.13;;;14.72;65.42
15444;BME280;7822;48.146;11.576;2023-04-19T06:24:47;95357.28;;;14.71;65.48
15444;BME280;7822;48.146;11.576;2023-04-19T06:27:15;95359.75;;;14.73;65.40
15444;BME280;7822;48.146;11.576;2023-04-19T06:29:44;95351.22;;;14.71;65.59
15444;BME280;7822;48.146;11.576;2023-04-19T06:32:12;95359.91;;;14.71;65.44
15444;BME280;7822;48.146;11.576;2023-04-19T06:34:39;95355.63;;;14.70;65.46
15444;BME280;7822;48.146;11.576;2023-04-19T06:37:07;95365.91;;;14.72;65.36
15444;BME280;7822;48.146;11.576;2023-04-19T06:39:35;95356.44;;;14.71;65.63
15444;BME280;7822;48.146;11.576;2023-04-19T06:42:02;95357.13;;;14.73;65.50
15444;BME280;7822;48.146;11.576;2023-04-19T06:44:30;95358.09;;;14.72;65.28
15444;BME280;7822;48.146;11.576;2023-04-19T06:46:59;95355.47;;;14.72;65.55
15444;BME280;7822;48.146;11.576;2023-04-19T06:49:27;95358.91;;;14.72;65.34
15444;BME280;7822;48.146;11.576;2023-04-19T06:51:55;95359.75;;;14.73;65.38
15444;BME280;7822;48.146;11.576;2023-04-19T06:54:22;95354.50;;;14.73;65.20
15444;BME280;7822;48.146;11.576;2023-04-19T06:56:50;95347.63;;;14.72;65.20
15444;BME280;7822;48.146;11.576;2023-04-19T06:59:19;95350.13;;;14.73;65.49
15444;BME280;7822;48.146;11.576;2023-04-19T07:01:47;95354.50;;;14.73;65.31
15444;BME280;7822;48.146;11.576;2023-04-19T07:04:16;95351.06;;;14.72;65.35
15444;BME280;7822;48.146;11.576;2023-04-19T07:06:47;95346.69;;;14.73;65.28
15444;BME280;7822;48.146;11.576;2023-04-19T07:09:15;95353.53;;;14.74;65.48
15444;BME280;7822;48.146;11.576;2023-04-19T07:11:42;95350.13;;;14.73;65.28
15444;BME280;7822;48.146;11.576;2023-04-19T07:14:10;95344.06;;;14.73;65.33
15444;BME280;7822;48.146;11.576;2023-04-19T07:16:38;95344.06;;;14.73;65.24
15444;BME280;7822;48.146;11.576;2023-04-19T07:19:06;95346.69;;;14.73;65.45
15444;BME280;7822;48.146;11.576;2023-04-19T07:21:35;95355.34;;;14.73;65.29
15444;BME280;7822;48.146;11.576;2023-04-19T07:24:04;95339.69;;;14.73;65.24
15444;BME280;7822;48.146;11.576;2023-04-19T07:26:32;95349.28;;;14.73;65.51
15444;BME280;7822;48.146;11.576;2023-04-19T07:29:00;95344.06;;;14.73;65.54
15444;BME280;7822;48.146;11.576;2023-04-19T07:31:28;95335.25;;;14.74;65.40
15444;BME280;7822;48.146;11.576;2023-04-19T07:33:55;95341.47;;;14.73;65.37
15444;BME280;7822;48.146;11.576;2023-04-19T07:36:23;95350.13;;;14.73;65.63
15444;BME280;7822;48.146;11.576;2023-04-19T07:38:52;95351.91;;;14.73;65.52
15444;BME280;7822;48.146;11.576;2023-04-19T07:41:20;95339.69;;;14.73;65.53
15444;BME280;7822;48.146;11.576;2023-04-19T07:43:47;95334.44;;;14.73;65.54
15444;BME280;7822;48.146;11.576;2023-04-19T07:46:15;95341.47;;;14.73;65.56
15444;BME280;7822;48.146;11.576;2023-04-19T07:48:43;95338.84;;;14.73;65.52
15444;BME280;7822;48.146;11.576;2023-04-19T07:51:13;95331.00;;;14.73;65.28
15444;BME280;7822;48.146;11.576;2023-04-19T07:53:42;95329.34;;;14.72;65.31
15444;BME280;7822;48.146;11.576;2023-04-19T07:56:11;95325.78;;;14.73;65.53
15444;BME280;7822;48.146;11.576;2023-04-19T07:58:39;95325.94;;;14.71;65.66
15444;BME280;7822;48.146;11.576;2023-04-19T08:01:09;95317.13;;;14.72;65.35
15444;BME280;7822;48.146;11.576;2023-04-19T08:03:37;95327.56;;;14.72;65.70
15444;BME280;7822;48.146;11.576;2023-04-19T08:06:06;95322.34;;;14.72;65.47
15444;BME280;7822;48.146;11.576;2023-04-19T08:08:34;95311.06;;;14.72;65.53
15444;BME280;7822;48.146;11.576;2023-04-19T08:11:03;95324.97;;;14.72;65.57
15444;BME280;7822;48.146;11.576;2023-04-19T08:13:32;95326.75;;;14.72;65.36
15444;BME280;7822;48.146;11.576;2023-04-19T08:16:00;95313.69;;;14.72;65.56
15444;BME280;7822;48.146;11.576;2023-04-19T08:18:48;95317.13;;;14.72;65.68
15444;BME280;7822;48.146;11.576;2023-04-19T08:21:17;95317.97;;;14.73;65.38
15444;BME280;7822;48.146;11.576;2023-04-19T08:23:51;95314.53;;;14.72;65.31
15444;BME280;7822;48.146;11.576;2023-04-19T08:26:19;95317.13;;;14.72;65.54
15444;BME280;7822;48.146;11.576;2023-04-19T08:28:49;95311.06;;;14.72;65.51
15444;BME280;7822;48.146;11.576;2023-04-19T08:31:17;95318.91;;;14.72;65.54
15444;BME280;7822;48.146;11.576;2023-04-19T08:33:46;95322.34;;;14.72;65.52
15444;BME280;7822;48.146;11.576;2023-04-19T08:36:14;95307.66;;;14.71;65.40
15444;BME280;7822;48.146;11.576;2023-04-19T08:38:47;95314.53;;;14.72;65.47
15444;BME280;7822;48.146;11.576;2023-04-19T08:41:31;95314.53;;;14.72;65.32
15444;BME280;7822;48.146;11.576;2023-04-19T08:44:00;95310.13;;;14.73;65.67
15444;BME280;7822;48.146;11.576;2023-04-19T08:46:29;95308.47;;;14.72;65.56
15444;BME280;7822;48.146;11.576;2023-04-19T08:48:58;95304.22;;;14.71;65.51
15444;BME280;7822;48.146;11.576;2023-04-19T08:51:26;95305.84;;;14.72;65.60
15444;BME280;7822;48.146;11.576;2023-04-19T08:53:57;95303.25;;;14.72;65.47
15444;BME280;7822;48.146;11.576;2023-04-19T08:56:25;95300.63;;;14.72;65.72
15444;BME280;7822;48.146;11.576;2023-04-19T08:59:02;95304.06;;;14.72;65.62
15444;BME280;7822;48.146;11.576;2023-04-19T09:01:36;95297.22;;;14.71;65.63
15444;BME280;7822;48.146;11.576;2023-04-19T09:04:06;95299.84;;;14.71;65.55
15444;BME280;7822;48.146;11.576;2023-04-19T09:06:37;95290.19;;;14.72;65.38
15444;BME280;7822;48.146;11.576;2023-04-19T09:09:15;95295.41;;;14.72;65.56
15444;BME280;7822;48.146;11.576;2023-04-19T09:12:00;95295.41;;;14.72;66.05
15444;BME280;7822;48.146;11.576;2023-04-19T09:14:29;95286.78;;;14.71;65.51
15444;BME280;7822;48.146;11.576;2023-04-19T09:17:15;95284.16;;;14.71;65.72
15444;BME280;7822;48.146;11.576;2023-04-19T09:19:46;95287.72;;;14.70;65.60
15444;BME280;7822;48.146;11.576;2023-04-19T09:22:15;95285.94;;;14.71;65.64
15444;BME280;7822;48.146;11.576;2023-04-19T09:24:43;95279.91;;;14.70;65.69
15444;BME280;7822;48.146;11.576;2023-04-19T09:27:16;95279.91;;;14.70;65.64
15444;BME280;7822;48.146;11.576;2023-04-19T09:29:52;95279.91;;;14.70;65.41
15444;BME280;7822;48.146;11.576;2023-04-19T09:32:20;95272.06;;;14.70;65.42
15444;BME280;7822;48.146;11.576;2023-04-19T09:34:53;95267.66;;;14.71;65.84
15444;BME280;7822;48.146;11.576;2023-04-19T09:37:21;95272.06;;;14.70;65.66
15444;BME280;7822;48.146;11.576;2023-04-19T09:40:22;95266.84;;;14.70;65.47
15444;BME280;7822;48.146;11.576;2023-04-19T09:42:49;95263.28;;;14.71;65.67
15444;BME280;7822;48.146;11.576;2023-04-19T09:45:22;95266.84;;;14.70;65.53
15444;BME280;7822;48.146;11.576;2023-04-19T09:48:03;95253.78;;;14.70;65.67
15444;BME280;7822;48.146;11.576;2023-04-19T09:50:33;95256.41;;;14.70;65.68
15444;BME280;7822;48.146;11.576;2023-04-19T09:53:21;95249.41;;;14.71;65.66
15444;BME280;7822;48.146;11.576;2023-04-19T09:55:49;95245.00;;;14.71;65.66
15444;BME280;7822;48.146;11.576;2023-04-19T09:58:28;95238.94;;;14.71;65.38
15444;BME280;7822;48.146;11.576;2023-04-19T10:01:00;95238.94;;;14.71;65.43
15444;BME280;7822;48.146;11.576;2023-04-19T10:03:41;95238.13;;;14.70;65.60
15444;BME280;7822;48.146;11.576;2023-04-19T10:06:10;95236.34;;;14.71;65.59
15444;BME280;7822;48.146;11.576;2023-04-19T10:09:00;95237.97;;;14.72;65.59
15444;BME280;7822;48.146;11.576;2023-04-19T10:11:31;95234.56;;;14.71;65.42
15444;BME280;7822;48.146;11.576;2023-04-19T10:14:05;95225.06;;;14.70;65.53
15444;BME280;7822;48.146;11.576;2023-04-19T10:16:36;95227.69;;;14.70;65.48
15444;BME280;7822;48.146;11.576;2023-04-19T10:19:07;95233.72;;;14.71;65.59
15444;BME280;7822;48.146;11.576;2023-04-19T10:21:36;95219.84;;;14.70;65.30
15444;BME280;7822;48.146;11.576;2023-04-19T10:24:05;95214.63;;;14.70;65.78
15444;BME280;7822;48.146;11.576;2023-04-19T10:29:59;95209.41;;;14.70;65.64
15444;BME280;7822;48.146;11.576;2023-04-19T10:32:36;95209.41;;;14.70;65.68
15444;BME280;7822;48.146;11.576;2023-04-19T10:35:08;95206.78;;;14.70;65.68
15444;BME280;7822;48.146;11.576;2023-04-19T10:37:39;95197.28;;;14.69;65.68
15444;BME280;7822;48.146;11.576;2023-04-19T10:40:08;95199.91;;;14.69;65.51
15444;BME280;7822;48.146;11.576;2023-04-19T10:43:13;95191.28;;;14.69;65.84
15444;BME280;7822;48.146;11.576;2023-04-19T10:45:41;95184.25;;;14.69;65.58
15444;BME280;7822;48.146;11.576;2023-04-19T10:48:32;95188.66;;;14.69;65.51
15444;BME280;7822;48.146;11.576;2023-04-19T10:51:01;95183.28;;;14.70;65.42
15444;BME280;7822;48.146;11.576;2023-04-19T10:53:59;95179.03;;;14.69;65.95
15444;BME280;7822;48.146;11.576;2023-04-19T10:56:56;95173.00;;;14.69;65.58
15444;BME280;7822;48.146;11.576;2023-04-19T10:59:25;95170.22;;;14.70;65.46
15444;BME280;7822;48.146;11.576;2023-04-19T11:01:55;95166.94;;;14.68;65.66
15444;BME280;7822;48.146;11.576;2023-04-19T11:04:58;95166.94;;;14.68;65.55
15444;BME280;7822;48.146;11.576;2023-04-19T11:07:27;95167.78;;;14.69;65.62
15444;BME280;7822;48.146;11.576;2023-04-19T11:09:54;95171.34;;;14.68;65.81
15444;BME280;7822;48.146;11.576;2023-04-19T11:12:22;95167.78;;;14.69;65.75
15444;BME280;7822;48.146;11.576;2023-04-19T11:14:51;95164.34;;;14.68;65.92
15444;BME280;7822;48.146;11.576;2023-04-19T11:17:20;95163.34;;;14.69;65.59
15444;BME280;7822;48.146;11.576;2023-04-19T11:19:56;95152.25;;;14.67;65.69
15444;BME280;7822;48.146;11.576;2023-04-19T11:22:29;95148.69;;;14.68;65.75
15444;BME280;7822;48.146;11.576;2023-04-19T11:25:04;95157.34;;;14.69;65.70
15444;BME280;7822;48.146;11.576;2023-04-19T11:27:32;95148.50;;;14.70;65.68
15444;BME280;7822;48.146;11.576;2023-04-19T11:30:04;95146.88;;;14.69;65.68
15444;BME280;7822;48.146;11.576;2023-04-19T11:32:32;95146.88;;;14.69;65.86
15444;BME280;7822;48.146;11.576;2023-04-19T11:35:05;95145.06;;;14.69;65.66
15444;BME280;7822;48.146;11.576;2023-04-19T11:37:35;95144.28;;;14.69;65.71
15444;BME280;7822;48.146;11.576;2023-04-19T11:40:05;95140.69;;;14.70;65.45
15444;BME280;7822;48.146;11.576;2023-04-19T11:42:33;95140.69;;;14.70;65.77
15444;BME280;7822;48.146;11.576;2023-04-19T11:45:01;95139.84;;;14.69;65.71
15444;BME280;7822;48.146;11.576;2023-04-19T11:47:31;95134.50;;;14.71;65.67
15444;BME280;7822;48.146;11.576;2023-04-19T11:50:29;95130.25;;;14.70;65.71
15444;BME280;7822;48.146;11.576;2023-04-19T11:52:59;95139.06;;;14.69;65.63
15444;BME280;7822;48.146;11.576;2023-04-19T11:55:35;95129.41;;;14.69;65.45
15444;BME280;7822;48.146;11.576;2023-04-19T11:58:05;95132.03;;;14.69;65.67
15444;BME280;7822;48.146;11.576;2023-04-19T12:00:35;95133.84;;;14.69;65.73
15444;BME280;7822;48.146;11.576;2023-04-19T12:03:03;95131.22;;;14.69;65.70
15444;BME280;7822;48.146;11.576;2023-04-19T12:05:31;95134.63;;;14.69;65.68
15444;BME280;7822;48.146;11.576;2023-04-19T12:08:02;95125.84;;;14.70;65.88
15444;BME280;7822;48.146;11.576;2023-04-19T12:10:31;95130.25;;;14.70;65.74
15444;BME280;7822;48.146;11.576;2023-04-19T12:12:59;95128.63;;;14.69;65.90
15444;BME280;7822;48.146;11.576;2023-04-19T12:15:40;95130.25;;;14.70;65.78
15444;BME280;7822;48.146;11.576;2023-04-19T12:18:08;95129.41;;;14.69;65.65
15444;BME280;7822;48.146;11.576;2023-04-19T12:20:37;95126.78;;;14.69;66.01
15444;BME280;7822;48.146;11.576;2023-04-19T12:23:06;95120.78;;;14.69;65.70
15444;BME280;7822;48.146;11.576;2023-04-19T12:25:36;95117.34;;;14.68;65.71
15444;BME280;7822;48.146;11.576;2023-04-19T12:28:04;95117.34;;;14.68;65.84
15444;BME280;7822;48.146;11.576;2023-04-19T12:30:32;95120.78;;;14.69;66.05
15444;BME280;7822;48.146;11.576;2023-04-19T12:33:00;95117.34;;;14.68;65.61
15444;BME280;7822;48.146;11.576;2023-04-19T12:35:28;95117.34;;;14.68;65.64
15444;BME280;7822;48.146;11.576;2023-04-19T12:37:58;95118.31;;;14.67;65.95
15444;BME280;7822;48.146;11.576;2023-04-19T12:40:28;95118.16;;;14.69;65.76
15444;BME280;7822;48.146;11.576;2023-04-19T12:42:55;95120.78;;;14.69;65.63
15444;BME280;7822;48.146;11.576;2023-04-19T12:45:24;95117.34;;;14.68;65.80
15444;BME280;7822;48.146;11.576;2023-04-19T12:47:52;95119.94;;;14.68;65.67
15444;BME280;7822;48.146;11.576;2023-04-19T12:50:20;95112.94;;;14.69;65.70
15444;BME280;7822;48.146;11.576;2023-04-19T12:52:47;95110.34;;;14.69;65.72
15444;BME280;7822;48.146;11.576;2023-04-19T12:55:17;95103.47;;;14.68;65.96
15444;BME280;7822;48.146;11.576;2023-04-19T12:57:46;95112.13;;;14.68;65.68
15444;BME280;7822;48.146;11.576;2023-04-19T13:00:14;95106.91;;;14.68;65.74
15444;BME280;7822;48.146;11.576;2023-04-19T13:02:42;95109.50;;;14.68;65.75
15444;BME280;7822;48.146;11.576;2023-04-19T13:05:10;95113.75;;;14.69;65.73
15444;BME280;7822;48.146;11.576;2023-04-19T13:07:38;95116.34;;;14.69;65.65
15444;BME280;7822;48.146;11.576;2023-04-19T13:10:07;95116.34;;;14.69;65.54
15444;BME280;7822;48.146;11.576;2023-04-19T13:12:34;95108.53;;;14.69;65.67
15444;BME280;7822;48.146;11.576;2023-04-19T13:15:04;95107.72;;;14.69;65.81
15444;BME280;7822;48.146;11.576;2023-04-19T13:17:32;95105.13;;;14.69;65.60